createdAt,value
2023-01-31T00:00:55.169Z,24.88
2023-01-31T00:05:59.317Z,32.78
2023-01-31T00:11:02.124Z,31.05
2023-01-31T00:16:05.728Z,24.88
2023-01-31T00:21:12.188Z,22.42
2023-01-31T00:26:16.689Z,32.83
2023-01-31T00:31:21.062Z,43.35
2023-01-31T00:36:29.279Z,36.40
2023-01-31T00:46:36.160Z,42.38
2023-01-31T00:51:40.784Z,23.27
2023-01-31T00:56:44.709Z,35.67
2023-01-31T01:01:47.478Z,42.83
2023-01-31T01:06:51.653Z,44.83
2023-01-31T01:11:54.771Z,27.10
2023-01-31T01:16:59.037Z,33.70
2023-01-31T01:22:04.833Z,36.88
2023-01-31T01:27:07.628Z,30.88
2023-01-31T01:32:10.423Z,21.45
2023-01-31T01:37:20.097Z,30.27
2023-01-31T01:42:25.151Z,20.75
2023-01-31T01:47:36.437Z,26.33
2023-01-31T01:52:45.534Z,37.35
2023-01-31T01:57:51.383Z,18.85
2023-01-31T02:02:58.008Z,31.73
2023-01-31T02:08:03.573Z,27.13
2023-01-31T02:13:06.716Z,27.10
2023-01-31T02:18:10.465Z,37.95
2023-01-31T02:23:54.487Z,30.20
2023-01-31T02:29:24.653Z,30.77
2023-01-31T02:34:37.800Z,29.13
2023-01-31T02:39:48.100Z,33.33
2023-01-31T02:45:00.581Z,28.88
2023-01-31T02:50:13.822Z,25.50
2023-01-31T02:55:41.712Z,27.20
2023-01-31T03:00:46.823Z,22.30
2023-01-31T03:06:35.729Z,30.58
2023-01-31T03:11:53.277Z,29.35
2023-01-31T03:17:20.111Z,22.75
2023-01-31T03:22:28.449Z,36.47
2023-01-31T03:27:31.426Z,31.42
2023-01-31T03:32:39.179Z,35.22
2023-01-31T03:37:50.278Z,27.52
2023-01-31T03:43:02.657Z,47.30
2023-01-31T03:48:14.369Z,35.10
2023-01-31T03:53:25.280Z,32.63
2023-01-31T03:58:33.957Z,31.27
2023-01-31T04:03:41.737Z,29.45
2023-01-31T04:08:46.775Z,37.13
2023-01-31T04:13:51.571Z,31.97
2023-01-31T04:18:56.446Z,29.33
2023-01-31T04:24:00.903Z,15.88
2023-01-31T04:29:04.134Z,28.50
2023-01-31T04:34:07.056Z,34.05
2023-01-31T04:39:13.660Z,28.48
2023-01-31T04:44:16.701Z,29.13
2023-01-31T04:49:20.265Z,31.02
2023-01-31T04:54:24.320Z,18.38
2023-01-31T04:59:27.016Z,25.52
2023-01-31T05:04:29.899Z,32.05
2023-01-31T05:09:33.950Z,21.98
2023-01-31T05:14:36.739Z,39.10
2023-01-31T05:19:39.508Z,22.52
2023-01-31T05:24:43.712Z,36.42
2023-01-31T05:29:47.054Z,27.77
2023-01-31T05:34:49.937Z,38.40
2023-01-31T05:39:54.097Z,28.70
2023-01-31T05:44:58.342Z,30.65
2023-01-31T05:50:01.592Z,46.28
2023-01-31T05:55:06.615Z,27.52
2023-01-31T06:00:10.584Z,27.73
2023-01-31T06:05:16.931Z,29.58
2023-01-31T06:10:21.408Z,28.55
2023-01-31T06:15:24.220Z,35.67
2023-01-31T06:20:27.496Z,38.72
2023-01-31T06:25:32.180Z,40.15
2023-01-31T06:30:35.036Z,28.88
2023-01-31T06:35:38.068Z,38.38
2023-01-31T06:40:42.315Z,22.58
2023-01-31T06:45:45.262Z,44.03
2023-01-31T06:50:48.299Z,30.17
2023-01-31T06:55:52.415Z,37.45
2023-01-31T07:00:55.259Z,55.20
2023-01-31T07:05:58.240Z,39.53
2023-01-31T07:11:02.699Z,39.00
2023-01-31T07:16:06.098Z,37.20
2023-01-31T07:21:09.023Z,47.17
2023-01-31T07:26:13.198Z,40.50
2023-01-31T07:31:16.424Z,37.80
2023-01-31T07:36:26.225Z,29.25
2023-01-31T07:41:30.312Z,22.70
2023-01-31T07:46:33.402Z,35.63
2023-01-31T07:51:36.108Z,37.97
2023-01-31T07:56:41.064Z,32.60
2023-01-31T08:02:01.254Z,34.25
2023-01-31T08:07:05.760Z,32.22
2023-01-31T08:12:10.023Z,21.75
2023-01-31T08:17:12.994Z,33.05
2023-01-31T08:22:15.862Z,39.80
2023-01-31T08:27:20.028Z,27.70
2023-01-31T08:32:22.762Z,28.95
2023-01-31T08:37:26.320Z,43.78
2023-01-31T08:42:30.698Z,27.45
2023-01-31T08:47:33.484Z,23.65
2023-01-31T08:52:36.487Z,22.63
2023-01-31T08:57:56.914Z,31.23
2023-01-31T09:03:01.862Z,28.88
2023-01-31T09:08:04.892Z,30.13
2023-01-31T09:13:09.000Z,24.02
2023-01-31T09:18:11.786Z,22.70
2023-01-31T09:23:14.517Z,22.55
2023-01-31T09:28:18.579Z,26.23
2023-01-31T09:33:22.012Z,27.50
2023-01-31T09:38:24.897Z,25.90
2023-01-31T09:43:33.857Z,27.85
2023-01-31T09:48:41.177Z,33.88
2023-01-31T09:53:45.678Z,24.52
2023-01-31T09:58:57.824Z,14.18
2023-01-31T10:04:18.841Z,22.70
2023-01-31T10:09:27.324Z,40.00
2023-01-31T10:14:36.650Z,18.02
2023-01-31T10:19:46.321Z,27.33
2023-01-31T10:24:53.565Z,26.45
2023-01-31T10:30:01.711Z,22.20
2023-01-31T10:35:13.829Z,32.00
2023-01-31T10:40:19.727Z,15.25
2023-01-31T10:45:31.098Z,30.70
2023-01-31T10:50:46.314Z,20.80
2023-01-31T10:56:00.419Z,28.15
2023-01-31T11:01:07.524Z,16.60
2023-01-31T11:11:18.208Z,27.15
2023-01-31T11:16:22.541Z,27.63
2023-01-31T11:21:27.625Z,27.67
2023-01-31T11:26:33.782Z,30.45
2023-01-31T11:31:45.630Z,32.90
2023-01-31T11:36:48.509Z,31.27
2023-01-31T11:41:51.330Z,32.45
2023-01-31T11:46:59.901Z,28.92
2023-01-31T11:52:12.845Z,21.60
2023-01-31T11:57:18.154Z,26.90
2023-01-31T12:02:32.542Z,32.22
2023-01-31T12:07:44.324Z,33.22
2023-01-31T12:12:47.037Z,28.42
2023-01-31T12:17:52.011Z,33.95
2023-01-31T12:23:07.576Z,15.50
2023-01-31T12:28:23.722Z,27.55
2023-01-31T12:33:44.805Z,28.37
2023-01-31T12:38:58.939Z,19.38
2023-01-31T12:44:30.675Z,14.68
2023-01-31T12:50:22.163Z,23.15
2023-01-31T12:55:32.370Z,18.20
2023-01-31T13:00:42.333Z,20.75
2023-01-31T13:05:51.692Z,18.52
2023-01-31T13:11:00.013Z,14.02
2023-01-31T13:16:12.864Z,26.92
2023-01-31T13:21:21.272Z,26.45
2023-01-31T13:26:29.081Z,34.40
2023-01-31T13:31:38.308Z,24.85
2023-01-31T13:36:46.782Z,30.00
2023-01-31T13:41:49.655Z,20.27
2023-01-31T13:46:58.574Z,21.50
2023-01-31T13:52:06.217Z,26.02
2023-01-31T13:57:19.357Z,18.92
2023-01-31T14:02:22.468Z,21.42
2023-01-31T14:07:26.917Z,23.83
2023-01-31T14:12:35.203Z,24.95
2023-01-31T14:18:01.499Z,20.95
2023-01-31T14:23:31.437Z,20.23
2023-01-31T14:28:34.815Z,19.80
2023-01-31T14:33:38.063Z,18.13
2023-01-31T14:39:01.837Z,14.32
2023-01-31T14:44:18.569Z,16.75
2023-01-31T14:49:51.473Z,17.10
2023-01-31T14:55:22.279Z,19.63
2023-01-31T15:00:29.237Z,20.55
2023-01-31T15:05:44.121Z,14.48
2023-01-31T15:11:05.373Z,17.60
2023-01-31T15:16:16.438Z,15.32
2023-01-31T15:21:25.209Z,13.20
2023-01-31T15:26:32.730Z,9.90
2023-01-31T15:31:41.954Z,9.10
2023-01-31T15:36:50.040Z,12.60
2023-01-31T15:41:54.261Z,13.80
2023-01-31T15:46:58.665Z,10.25
2023-01-31T15:52:14.521Z,10.90
2023-01-31T15:57:19.220Z,8.48
2023-01-31T16:02:29.050Z,9.98
2023-01-31T16:07:32.452Z,8.45
2023-01-31T16:12:43.810Z,11.95
2023-01-31T16:17:46.903Z,14.02
2023-01-31T16:22:57.607Z,9.02
2023-01-31T16:28:05.874Z,10.35
2023-01-31T16:33:17.883Z,9.25
2023-01-31T16:38:26.764Z,8.93
2023-01-31T16:43:33.037Z,8.43
2023-01-31T16:48:37.345Z,6.37
2023-01-31T16:53:41.599Z,8.40
2023-01-31T16:58:49.087Z,8.85
2023-01-31T17:04:17.953Z,8.63
2023-01-31T17:09:23.399Z,11.65
2023-01-31T17:14:27.524Z,11.98
2023-01-31T17:19:33.280Z,5.50
2023-01-31T17:24:36.006Z,5.72
2023-01-31T17:29:40.154Z,7.32
2023-01-31T17:34:45.637Z,6.68
2023-01-31T17:39:48.342Z,7.55
2023-01-31T17:44:52.616Z,6.38
2023-01-31T17:49:55.559Z,6.47
2023-01-31T17:54:58.325Z,7.38
2023-01-31T18:00:06.445Z,7.75
2023-01-31T18:05:10.195Z,6.50
2023-01-31T18:10:13.040Z,4.30
2023-01-31T18:15:17.194Z,5.38
2023-01-31T18:20:20.160Z,4.32
2023-01-31T18:25:23.250Z,8.07
2023-01-31T18:30:27.805Z,4.25
2023-01-31T18:35:30.603Z,6.85
2023-01-31T18:40:33.482Z,10.98
2023-01-31T18:45:38.726Z,8.73
2023-01-31T18:50:41.690Z,8.35
2023-01-31T18:55:44.455Z,8.35
2023-01-31T19:00:48.584Z,12.20
2023-01-31T19:05:51.280Z,8.88
2023-01-31T19:10:54.025Z,8.43
2023-01-31T19:16:01.124Z,11.13
2023-01-31T19:26:06.643Z,8.95
2023-01-31T19:31:13.210Z,12.50
2023-01-31T19:36:17.764Z,10.05
2023-01-31T19:41:22.442Z,14.75
2023-01-31T19:46:28.720Z,13.55
2023-01-31T19:51:32.040Z,14.50
2023-01-31T19:56:34.988Z,12.80
2023-01-31T20:01:39.303Z,18.48
2023-01-31T20:06:42.064Z,11.73
2023-01-31T20:11:44.781Z,8.77
2023-01-31T20:16:49.367Z,9.13
2023-01-31T20:21:52.236Z,7.18
2023-01-31T20:26:54.998Z,11.38
2023-01-31T20:31:59.274Z,12.18
2023-01-31T20:37:02.660Z,9.77
2023-01-31T20:42:05.683Z,11.20
2023-01-31T20:47:09.788Z,10.85
2023-01-31T20:52:12.619Z,10.75
2023-01-31T20:57:15.434Z,19.20
2023-01-31T21:02:19.587Z,8.98
2023-01-31T21:07:22.520Z,13.00
2023-01-31T21:12:25.247Z,11.55
2023-01-31T21:17:39.488Z,7.10
2023-01-31T21:22:43.281Z,6.90
2023-01-31T21:27:46.085Z,6.47
2023-01-31T21:32:50.268Z,10.35
2023-01-31T21:37:53.213Z,13.50
2023-01-31T21:42:56.149Z,18.83
2023-01-31T21:48:17.862Z,20.88
2023-01-31T21:53:20.821Z,8.93
2023-01-31T21:58:23.524Z,12.77
2023-01-31T22:03:27.713Z,20.38
2023-01-31T22:08:30.648Z,8.25
2023-01-31T22:13:33.879Z,13.48
2023-01-31T22:18:38.793Z,11.90
2023-01-31T22:23:46.512Z,12.90
2023-01-31T22:28:49.772Z,13.23
2023-01-31T22:33:54.282Z,17.63
2023-01-31T22:38:57.132Z,12.70
2023-01-31T22:44:00.084Z,13.80
2023-01-31T22:49:04.303Z,10.88
2023-01-31T22:54:07.096Z,11.10
2023-01-31T22:59:10.404Z,12.23
2023-01-31T23:04:16.715Z,20.45
2023-01-31T23:09:19.592Z,19.33
2023-01-31T23:14:22.596Z,15.32
2023-01-31T23:19:26.739Z,18.05
2023-01-31T23:24:29.557Z,21.90
2023-01-31T23:29:32.272Z,14.48
2023-01-31T23:34:36.461Z,18.33
2023-01-31T23:39:39.490Z,14.65
2023-01-31T23:44:42.830Z,21.33
2023-01-31T23:49:47.111Z,21.67
2023-01-31T23:54:49.866Z,24.42
2023-01-31T23:59:52.824Z,19.30
